sensor_id;sensor_type;location;lat;lon;timestamp;P1;durP1;ratioP1;P2;durP2;ratioP2
59474;SDS011;45288;51.136;16.928;2023-02-02T00:00:43;8.63;;;3.28;;
59474;SDS011;45288;51.136;16.928;2023-02-02T00:03:09;12.07;;;3.27;;
59474;SDS011;45288;51.136;16.928;2023-02-02T00:05:35;10.90;;;3.10;;
59474;SDS011;45288;51.136;16.928;2023-02-02T00:08:01;8.88;;;3.00;;
59474;SDS011;45288;51.136;16.928;2023-02-02T00:10:27;12.07;;;3.08;;
59474;SDS011;45288;51.136;16.928;2023-02-02T00:12:52;10.40;;;3.10;;
59474;SDS011;45288;51.136;16.928;2023-02-02T00:15:18;7.50;;;2.83;;
59474;SDS011;45288;51.136;16.928;2023-02-02T00:17:44;9.48;;;3.00;;
59474;SDS011;45288;51.136;16.928;2023-02-02T00:20:10;11.68;;;3.42;;
59474;SDS011;45288;51.136;16.928;2023-02-02T00:22:35;6.80;;;2.13;;
59474;SDS011;45288;51.136;16.928;2023-02-02T00:25:01;8.50;;;3.00;;
59474;SDS011;45288;51.136;16.928;2023-02-02T00:27:26;9.73;;;2.73;;
59474;SDS011;45288;51.136;16.928;2023-02-02T00:29:52;12.30;;;3.27;;
59474;SDS011;45288;51.136;16.928;2023-02-02T00:32:18;10.27;;;3.00;;
59474;SDS011;45288;51.136;16.928;2023-02-02T00:34:44;8.50;;;2.78;;
59474;SDS011;45288;51.136;16.928;2023-02-02T00:37:10;8.68;;;2.95;;
59474;SDS011;45288;51.136;16.928;2023-02-02T00:39:35;7.50;;;3.03;;
59474;SDS011;45288;51.136;16.928;2023-02-02T00:42:01;9.60;;;2.85;;
59474;SDS011;45288;51.136;16.928;2023-02-02T00:44:27;6.60;;;2.63;;
59474;SDS011;45288;51.136;16.928;2023-02-02T00:47:15;7.85;;;2.53;;
59474;SDS011;45288;51.136;16.928;2023-02-02T00:49:42;6.60;;;2.58;;
59474;SDS011;45288;51.136;16.928;2023-02-02T00:52:07;8.52;;;3.00;;
59474;SDS011;45288;51.136;16.928;2023-02-02T00:54:33;7.43;;;2.50;;
59474;SDS011;45288;51.136;16.928;2023-02-02T00:56:59;7.33;;;2.80;;
59474;SDS011;45288;51.136;16.928;2023-02-02T00:59:24;8.68;;;3.20;;
59474;SDS011;45288;51.136;16.928;2023-02-02T01:01:50;8.97;;;3.13;;
59474;SDS011;45288;51.136;16.928;2023-02-02T01:04:15;9.15;;;3.03;;
59474;SDS011;45288;51.136;16.928;2023-02-02T01:06:41;10.13;;;2.73;;
59474;SDS011;45288;51.136;16.928;2023-02-02T01:09:07;10.53;;;3.00;;
59474;SDS011;45288;51.136;16.928;2023-02-02T01:11:32;5.75;;;2.50;;
59474;SDS011;45288;51.136;16.928;2023-02-02T01:13:58;8.23;;;2.33;;
59474;SDS011;45288;51.136;16.928;2023-02-02T01:16:24;8.00;;;2.83;;
59474;SDS011;45288;51.136;16.928;2023-02-02T01:18:49;11.97;;;2.70;;
59474;SDS011;45288;51.136;16.928;2023-02-02T01:21:15;9.40;;;2.50;;
59474;SDS011;45288;51.136;16.928;2023-02-02T01:23:41;9.50;;;2.90;;
59474;SDS011;45288;51.136;16.928;2023-02-02T01:26:08;8.70;;;2.93;;
59474;SDS011;45288;51.136;16.928;2023-02-02T01:28:34;9.07;;;2.53;;
59474;SDS011;45288;51.136;16.928;2023-02-02T01:31:04;8.27;;;2.65;;
59474;SDS011;45288;51.136;16.928;2023-02-02T01:33:30;10.85;;;2.38;;
59474;SDS011;45288;51.136;16.928;2023-02-02T01:35:56;9.00;;;2.88;;
59474;SDS011;45288;51.136;16.928;2023-02-02T01:38:22;7.87;;;2.60;;
59474;SDS011;45288;51.136;16.928;2023-02-02T01:40:52;11.90;;;2.90;;
59474;SDS011;45288;51.136;16.928;2023-02-02T01:43:20;8.25;;;2.60;;
59474;SDS011;45288;51.136;16.928;2023-02-02T01:45:46;8.50;;;2.60;;
59474;SDS011;45288;51.136;16.928;2023-02-02T01:48:12;8.55;;;2.40;;
59474;SDS011;45288;51.136;16.928;2023-02-02T01:50:38;6.37;;;2.43;;
59474;SDS011;45288;51.136;16.928;2023-02-02T01:53:04;8.33;;;2.50;;
59474;SDS011;45288;51.136;16.928;2023-02-02T01:55:31;10.98;;;2.83;;
59474;SDS011;45288;51.136;16.928;2023-02-02T01:58:02;8.98;;;2.60;;
59474;SDS011;45288;51.136;16.928;2023-02-02T02:00:29;9.75;;;2.72;;
59474;SDS011;45288;51.136;16.928;2023-02-02T02:02:57;8.40;;;2.65;;
59474;SDS011;45288;51.136;16.928;2023-02-02T02:05:26;10.07;;;2.30;;
59474;SDS011;45288;51.136;16.928;2023-02-02T02:07:53;7.90;;;2.20;;
59474;SDS011;45288;51.136;16.928;2023-02-02T02:10:21;6.28;;;2.30;;
59474;SDS011;45288;51.136;16.928;2023-02-02T02:12:46;6.82;;;2.25;;
59474;SDS011;45288;51.136;16.928;2023-02-02T02:15:12;8.05;;;2.20;;
59474;SDS011;45288;51.136;16.928;2023-02-02T02:23:38;7.88;;;1.95;;
59474;SDS011;45288;51.136;16.928;2023-02-02T02:34:04;10.88;;;2.90;;
59474;SDS011;45288;51.136;16.928;2023-02-02T02:36:42;8.70;;;2.38;;
59474;SDS011;45288;51.136;16.928;2023-02-02T02:39:12;6.25;;;2.20;;
59474;SDS011;45288;51.136;16.928;2023-02-02T02:41:43;7.32;;;2.50;;
59474;SDS011;45288;51.136;16.928;2023-02-02T02:44:11;10.43;;;2.47;;
59474;SDS011;45288;51.136;16.928;2023-02-02T02:46:38;10.48;;;2.63;;
59474;SDS011;45288;51.136;16.928;2023-02-02T02:49:06;8.98;;;2.33;;
59474;SDS011;45288;51.136;16.928;2023-02-02T02:51:43;7.65;;;2.55;;
59474;SDS011;45288;51.136;16.928;2023-02-02T02:54:27;8.13;;;2.70;;
59474;SDS011;45288;51.136;16.928;2023-02-02T03:07:20;6.10;;;2.00;;
59474;SDS011;45288;51.136;16.928;2023-02-02T03:09:48;9.95;;;2.40;;
59474;SDS011;45288;51.136;16.928;2023-02-02T03:12:15;7.25;;;2.20;;
59474;SDS011;45288;51.136;16.928;2023-02-02T03:14:40;7.85;;;2.05;;
59474;SDS011;45288;51.136;16.928;2023-02-02T03:17:07;14.30;;;3.20;;
59474;SDS011;45288;51.136;16.928;2023-02-02T03:19:32;8.80;;;3.10;;
59474;SDS011;45288;51.136;16.928;2023-02-02T03:21:58;7.87;;;2.20;;
59474;SDS011;45288;51.136;16.928;2023-02-02T03:24:23;9.13;;;2.20;;
59474;SDS011;45288;51.136;16.928;2023-02-02T03:26:49;7.73;;;1.90;;
59474;SDS011;45288;51.136;16.928;2023-02-02T03:29:16;7.35;;;2.30;;
59474;SDS011;45288;51.136;16.928;2023-02-02T03:31:42;7.03;;;2.20;;
59474;SDS011;45288;51.136;16.928;2023-02-02T03:34:07;10.67;;;2.80;;
59474;SDS011;45288;51.136;16.928;2023-02-02T03:36:33;7.85;;;2.45;;
59474;SDS011;45288;51.136;16.928;2023-02-02T03:38:59;8.05;;;2.13;;
59474;SDS011;45288;51.136;16.928;2023-02-02T03:41:24;7.77;;;2.60;;
59474;SDS011;45288;51.136;16.928;2023-02-02T03:43:50;10.70;;;2.25;;
59474;SDS011;45288;51.136;16.928;2023-02-02T03:46:15;4.67;;;2.10;;
59474;SDS011;45288;51.136;16.928;2023-02-02T03:48:41;10.03;;;2.67;;
59474;SDS011;45288;51.136;16.928;2023-02-02T03:51:11;8.38;;;2.60;;
59474;SDS011;45288;51.136;16.928;2023-02-02T03:53:37;9.10;;;2.60;;
59474;SDS011;45288;51.136;16.928;2023-02-02T03:56:03;7.93;;;1.80;;
59474;SDS011;45288;51.136;16.928;2023-02-02T03:58:28;6.43;;;2.60;;
59474;SDS011;45288;51.136;16.928;2023-02-02T04:00:58;12.18;;;3.00;;
59474;SDS011;45288;51.136;16.928;2023-02-02T04:03:24;12.00;;;2.80;;
59474;SDS011;45288;51.136;16.928;2023-02-02T04:05:49;8.77;;;2.92;;
59474;SDS011;45288;51.136;16.928;2023-02-02T04:08:15;8.80;;;2.47;;
59474;SDS011;45288;51.136;16.928;2023-02-02T04:10:41;5.87;;;1.60;;
59474;SDS011;45288;51.136;16.928;2023-02-02T04:13:06;10.38;;;2.78;;
59474;SDS011;45288;51.136;16.928;2023-02-02T04:15:32;9.20;;;2.58;;
59474;SDS011;45288;51.136;16.928;2023-02-02T04:17:58;9.27;;;2.50;;
59474;SDS011;45288;51.136;16.928;2023-02-02T04:20:23;7.60;;;2.50;;
59474;SDS011;45288;51.136;16.928;2023-02-02T04:22:49;10.47;;;2.50;;
59474;SDS011;45288;51.136;16.928;2023-02-02T04:25:15;7.13;;;2.50;;
59474;SDS011;45288;51.136;16.928;2023-02-02T04:27:40;8.68;;;1.90;;
59474;SDS011;45288;51.136;16.928;2023-02-02T04:30:06;9.03;;;2.17;;
59474;SDS011;45288;51.136;16.928;2023-02-02T04:32:33;6.95;;;2.15;;
59474;SDS011;45288;51.136;16.928;2023-02-02T04:34:58;7.68;;;2.25;;
59474;SDS011;45288;51.136;16.928;2023-02-02T04:37:24;6.63;;;2.00;;
59474;SDS011;45288;51.136;16.928;2023-02-02T04:39:50;6.38;;;1.98;;
59474;SDS011;45288;51.136;16.928;2023-02-02T04:42:15;6.87;;;1.83;;
59474;SDS011;45288;51.136;16.928;2023-02-02T04:44:41;7.32;;;1.67;;
59474;SDS011;45288;51.136;16.928;2023-02-02T04:47:08;5.38;;;2.20;;
59474;SDS011;45288;51.136;16.928;2023-02-02T04:49:34;5.00;;;1.50;;
59474;SDS011;45288;51.136;16.928;2023-02-02T04:51:59;6.67;;;2.33;;
59474;SDS011;45288;51.136;16.928;2023-02-02T04:54:25;9.43;;;2.17;;
59474;SDS011;45288;51.136;16.928;2023-02-02T04:56:50;5.93;;;2.07;;
59474;SDS011;45288;51.136;16.928;2023-02-02T04:59:16;5.97;;;1.98;;
59474;SDS011;45288;51.136;16.928;2023-02-02T05:01:41;9.47;;;2.63;;
59474;SDS011;45288;51.136;16.928;2023-02-02T05:04:07;7.70;;;2.08;;
59474;SDS011;45288;51.136;16.928;2023-02-02T05:06:33;7.17;;;2.27;;
59474;SDS011;45288;51.136;16.928;2023-02-02T05:08:58;6.77;;;2.23;;
59474;SDS011;45288;51.136;16.928;2023-02-02T05:11:25;7.93;;;2.30;;
59474;SDS011;45288;51.136;16.928;2023-02-02T05:13:52;5.00;;;1.77;;
59474;SDS011;45288;51.136;16.928;2023-02-02T05:16:18;9.45;;;2.80;;
59474;SDS011;45288;51.136;16.928;2023-02-02T05:18:51;9.85;;;2.70;;
59474;SDS011;45288;51.136;16.928;2023-02-02T05:21:16;6.97;;;2.10;;
59474;SDS011;45288;51.136;16.928;2023-02-02T05:23:42;6.50;;;2.07;;
59474;SDS011;45288;51.136;16.928;2023-02-02T05:26:11;7.67;;;2.50;;
59474;SDS011;45288;51.136;16.928;2023-02-02T05:28:39;7.68;;;2.30;;
59474;SDS011;45288;51.136;16.928;2023-02-02T05:31:06;7.65;;;2.40;;
59474;SDS011;45288;51.136;16.928;2023-02-02T05:33:32;12.57;;;2.85;;
59474;SDS011;45288;51.136;16.928;2023-02-02T05:35:57;6.43;;;2.40;;
59474;SDS011;45288;51.136;16.928;2023-02-02T05:38:23;8.10;;;2.40;;
59474;SDS011;45288;51.136;16.928;2023-02-02T05:40:49;8.65;;;2.42;;
59474;SDS011;45288;51.136;16.928;2023-02-02T05:43:14;6.70;;;2.33;;
59474;SDS011;45288;51.136;16.928;2023-02-02T05:45:40;8.90;;;2.30;;
59474;SDS011;45288;51.136;16.928;2023-02-02T05:48:06;8.98;;;2.28;;
59474;SDS011;45288;51.136;16.928;2023-02-02T05:50:31;8.53;;;2.27;;
59474;SDS011;45288;51.136;16.928;2023-02-02T05:53:03;8.63;;;2.40;;
59474;SDS011;45288;51.136;16.928;2023-02-02T05:55:29;6.10;;;1.93;;
59474;SDS011;45288;51.136;16.928;2023-02-02T05:57:54;5.77;;;2.30;;
59474;SDS011;45288;51.136;16.928;2023-02-02T06:00:20;9.23;;;2.83;;
59474;SDS011;45288;51.136;16.928;2023-02-02T06:02:46;7.67;;;2.60;;
59474;SDS011;45288;51.136;16.928;2023-02-02T06:05:11;4.97;;;2.00;;
59474;SDS011;45288;51.136;16.928;2023-02-02T06:07:39;7.72;;;2.42;;
59474;SDS011;45288;51.136;16.928;2023-02-02T06:10:05;8.17;;;2.53;;
59474;SDS011;45288;51.136;16.928;2023-02-02T06:12:30;6.68;;;2.35;;
59474;SDS011;45288;51.136;16.928;2023-02-02T06:14:56;10.57;;;3.20;;
59474;SDS011;45288;51.136;16.928;2023-02-02T06:17:22;9.47;;;2.53;;
59474;SDS011;45288;51.136;16.928;2023-02-02T06:19:47;6.43;;;2.50;;
59474;SDS011;45288;51.136;16.928;2023-02-02T06:22:13;6.80;;;2.27;;
59474;SDS011;45288;51.136;16.928;2023-02-02T06:24:38;7.17;;;2.43;;
59474;SDS011;45288;51.136;16.928;2023-02-02T06:27:04;9.53;;;3.00;;
59474;SDS011;45288;51.136;16.928;2023-02-02T06:29:29;7.33;;;2.70;;
59474;SDS011;45288;51.136;16.928;2023-02-02T06:31:55;6.27;;;2.50;;
59474;SDS011;45288;51.136;16.928;2023-02-02T06:34:20;9.73;;;2.27;;
59474;SDS011;45288;51.136;16.928;2023-02-02T06:36:46;6.03;;;2.33;;
59474;SDS011;45288;51.136;16.928;2023-02-02T06:39:12;4.37;;;2.20;;
59474;SDS011;45288;51.136;16.928;2023-02-02T06:41:37;5.57;;;2.50;;
59474;SDS011;45288;51.136;16.928;2023-02-02T06:44:03;6.03;;;2.60;;
59474;SDS011;45288;51.136;16.928;2023-02-02T06:46:28;7.93;;;2.80;;
59474;SDS011;45288;51.136;16.928;2023-02-02T06:48:54;6.72;;;2.28;;
59474;SDS011;45288;51.136;16.928;2023-02-02T06:51:20;9.23;;;2.73;;
59474;SDS011;45288;51.136;16.928;2023-02-02T06:53:46;6.22;;;2.13;;
59474;SDS011;45288;51.136;16.928;2023-02-02T06:56:12;6.43;;;2.60;;
59474;SDS011;45288;51.136;16.928;2023-02-02T06:58:38;8.97;;;2.30;;
59474;SDS011;45288;51.136;16.928;2023-02-02T07:01:04;4.97;;;1.83;;
59474;SDS011;45288;51.136;16.928;2023-02-02T07:03:30;7.03;;;2.93;;
59474;SDS011;45288;51.136;16.928;2023-02-02T07:05:56;6.60;;;2.50;;
59474;SDS011;45288;51.136;16.928;2023-02-02T07:08:21;9.47;;;2.70;;
59474;SDS011;45288;51.136;16.928;2023-02-02T07:10:47;6.17;;;2.30;;
59474;SDS011;45288;51.136;16.928;2023-02-02T07:13:13;6.27;;;2.27;;
59474;SDS011;45288;51.136;16.928;2023-02-02T07:15:38;4.18;;;1.80;;
59474;SDS011;45288;51.136;16.928;2023-02-02T07:18:04;5.90;;;2.20;;
59474;SDS011;45288;51.136;16.928;2023-02-02T07:20:30;6.82;;;2.15;;
59474;SDS011;45288;51.136;16.928;2023-02-02T07:22:55;6.53;;;2.67;;
59474;SDS011;45288;51.136;16.928;2023-02-02T07:25:21;5.43;;;1.47;;
59474;SDS011;45288;51.136;16.928;2023-02-02T07:27:50;4.30;;;1.65;;
59474;SDS011;45288;51.136;16.928;2023-02-02T07:30:16;4.33;;;2.37;;
59474;SDS011;45288;51.136;16.928;2023-02-02T07:32:46;8.40;;;2.60;;
59474;SDS011;45288;51.136;16.928;2023-02-02T07:35:11;5.13;;;2.10;;
59474;SDS011;45288;51.136;16.928;2023-02-02T07:37:37;5.00;;;2.08;;
59474;SDS011;45288;51.136;16.928;2023-02-02T07:40:02;5.10;;;1.87;;
59474;SDS011;45288;51.136;16.928;2023-02-02T07:42:28;7.68;;;1.90;;
59474;SDS011;45288;51.136;16.928;2023-02-02T07:44:54;4.22;;;1.75;;
59474;SDS011;45288;51.136;16.928;2023-02-02T07:47:19;2.43;;;1.50;;
59474;SDS011;45288;51.136;16.928;2023-02-02T07:49:45;4.43;;;1.83;;
59474;SDS011;45288;51.136;16.928;2023-02-02T07:52:11;2.40;;;1.60;;
59474;SDS011;45288;51.136;16.928;2023-02-02T07:54:36;7.57;;;2.10;;
59474;SDS011;45288;51.136;16.928;2023-02-02T07:57:02;3.85;;;1.70;;
59474;SDS011;45288;51.136;16.928;2023-02-02T07:59:27;4.57;;;1.77;;
59474;SDS011;45288;51.136;16.928;2023-02-02T08:01:53;6.28;;;2.00;;
59474;SDS011;45288;51.136;16.928;2023-02-02T08:04:18;3.87;;;1.93;;
59474;SDS011;45288;51.136;16.928;2023-02-02T08:06:44;4.65;;;1.38;;
59474;SDS011;45288;51.136;16.928;2023-02-02T08:09:10;5.20;;;2.10;;
59474;SDS011;45288;51.136;16.928;2023-02-02T08:11:36;5.40;;;1.50;;
59474;SDS011;45288;51.136;16.928;2023-02-02T08:14:02;5.13;;;1.20;;
59474;SDS011;45288;51.136;16.928;2023-02-02T08:16:29;6.15;;;1.90;;
59474;SDS011;45288;51.136;16.928;2023-02-02T08:18:55;3.83;;;1.80;;
59474;SDS011;45288;51.136;16.928;2023-02-02T08:21:21;6.60;;;1.42;;
59474;SDS011;45288;51.136;16.928;2023-02-02T08:23:47;5.05;;;1.92;;
59474;SDS011;45288;51.136;16.928;2023-02-02T08:26:23;3.22;;;1.50;;
59474;SDS011;45288;51.136;16.928;2023-02-02T08:28:53;7.85;;;1.80;;
59474;SDS011;45288;51.136;16.928;2023-02-02T08:31:20;4.45;;;1.85;;
59474;SDS011;45288;51.136;16.928;2023-02-02T08:33:46;4.40;;;1.77;;
59474;SDS011;45288;51.136;16.928;2023-02-02T08:36:16;4.20;;;1.73;;
59474;SDS011;45288;51.136;16.928;2023-02-02T08:38:42;5.63;;;1.70;;
59474;SDS011;45288;51.136;16.928;2023-02-02T08:41:09;2.92;;;1.20;;
59474;SDS011;45288;51.136;16.928;2023-02-02T08:43:35;3.58;;;1.85;;
59474;SDS011;45288;51.136;16.928;2023-02-02T08:46:01;5.03;;;2.20;;
59474;SDS011;45288;51.136;16.928;2023-02-02T08:48:27;3.40;;;1.95;;
59474;SDS011;45288;51.136;16.928;2023-02-02T08:50:53;3.87;;;1.40;;
59474;SDS011;45288;51.136;16.928;2023-02-02T08:53:19;6.20;;;1.80;;
59474;SDS011;45288;51.136;16.928;2023-02-02T08:55:45;6.40;;;1.98;;
59474;SDS011;45288;51.136;16.928;2023-02-02T08:58:11;3.20;;;1.80;;
59474;SDS011;45288;51.136;16.928;2023-02-02T09:00:36;4.95;;;1.80;;
59474;SDS011;45288;51.136;16.928;2023-02-02T09:03:02;4.70;;;2.40;;
59474;SDS011;45288;51.136;16.928;2023-02-02T09:05:28;6.32;;;2.90;;
59474;SDS011;45288;51.136;16.928;2023-02-02T09:07:53;3.88;;;1.83;;
59474;SDS011;45288;51.136;16.928;2023-02-02T09:10:19;5.17;;;1.83;;
59474;SDS011;45288;51.136;16.928;2023-02-02T09:12:44;3.83;;;1.80;;
59474;SDS011;45288;51.136;16.928;2023-02-02T09:15:10;3.83;;;1.90;;
59474;SDS011;45288;51.136;16.928;2023-02-02T09:17:37;5.72;;;2.45;;
59474;SDS011;45288;51.136;16.928;2023-02-02T09:20:02;5.40;;;1.93;;
59474;SDS011;45288;51.136;16.928;2023-02-02T09:22:29;5.05;;;2.20;;
59474;SDS011;45288;51.136;16.928;2023-02-02T09:24:54;4.97;;;1.97;;
59474;SDS011;45288;51.136;16.928;2023-02-02T09:27:20;7.07;;;2.90;;
59474;SDS011;45288;51.136;16.928;2023-02-02T09:29:45;4.60;;;2.30;;
59474;SDS011;45288;51.136;16.928;2023-02-02T09:32:13;4.93;;;1.80;;
59474;SDS011;45288;51.136;16.928;2023-02-02T09:34:38;3.85;;;1.70;;
59474;SDS011;45288;51.136;16.928;2023-02-02T09:37:04;4.47;;;1.77;;
59474;SDS011;45288;51.136;16.928;2023-02-02T09:39:29;7.23;;;2.00;;
59474;SDS011;45288;51.136;16.928;2023-02-02T09:46:50;5.90;;;2.20;;
59474;SDS011;45288;51.136;16.928;2023-02-02T09:49:27;5.50;;;2.33;;
59474;SDS011;45288;51.136;16.928;2023-02-02T09:51:58;5.00;;;1.95;;
59474;SDS011;45288;51.136;16.928;2023-02-02T09:57:22;4.95;;;2.35;;
59474;SDS011;45288;51.136;16.928;2023-02-02T09:59:50;5.00;;;2.38;;
59474;SDS011;45288;51.136;16.928;2023-02-02T10:02:17;4.22;;;2.05;;
59474;SDS011;45288;51.136;16.928;2023-02-02T10:04:46;5.70;;;2.35;;
59474;SDS011;45288;51.136;16.928;2023-02-02T10:07:15;3.60;;;1.70;;
59474;SDS011;45288;51.136;16.928;2023-02-02T10:12:23;5.33;;;2.37;;
59474;SDS011;45288;51.136;16.928;2023-02-02T10:14:54;2.53;;;1.70;;
59474;SDS011;45288;51.136;16.928;2023-02-02T10:19:51;5.68;;;2.47;;
59474;SDS011;45288;51.136;16.928;2023-02-02T10:22:20;5.60;;;2.38;;
59474;SDS011;45288;51.136;16.928;2023-02-02T10:24:47;6.70;;;2.58;;
59474;SDS011;45288;51.136;16.928;2023-02-02T10:27:15;3.67;;;1.42;;
59474;SDS011;45288;51.136;16.928;2023-02-02T10:29:52;4.60;;;1.87;;
59474;SDS011;45288;51.136;16.928;2023-02-02T10:32:24;2.83;;;1.38;;
59474;SDS011;45288;51.136;16.928;2023-02-02T10:35:02;6.18;;;1.80;;
59474;SDS011;45288;51.136;16.928;2023-02-02T10:37:33;3.88;;;1.85;;
59474;SDS011;45288;51.136;16.928;2023-02-02T10:43:00;5.32;;;1.83;;
59474;SDS011;45288;51.136;16.928;2023-02-02T10:45:50;3.50;;;1.75;;
59474;SDS011;45288;51.136;16.928;2023-02-02T10:48:18;5.37;;;1.83;;
59474;SDS011;45288;51.136;16.928;2023-02-02T10:50:46;3.63;;;1.70;;
59474;SDS011;45288;51.136;16.928;2023-02-02T10:53:13;3.37;;;1.67;;
59474;SDS011;45288;51.136;16.928;2023-02-02T10:55:49;4.17;;;1.87;;
59474;SDS011;45288;51.136;16.928;2023-02-02T10:58:25;4.13;;;1.50;;
59474;SDS011;45288;51.136;16.928;2023-02-02T11:00:53;4.10;;;1.65;;
59474;SDS011;45288;51.136;16.928;2023-02-02T11:03:20;3.15;;;1.40;;
59474;SDS011;45288;51.136;16.928;2023-02-02T11:05:46;2.92;;;1.40;;
59474;SDS011;45288;51.136;16.928;2023-02-02T11:08:34;2.57;;;1.30;;
59474;SDS011;45288;51.136;16.928;2023-02-02T11:13:40;5.43;;;2.05;;
59474;SDS011;45288;51.136;16.928;2023-02-02T11:18:44;3.75;;;1.50;;
59474;SDS011;45288;51.136;16.928;2023-02-02T11:21:26;4.87;;;2.10;;
59474;SDS011;45288;51.136;16.928;2023-02-02T11:23:52;4.38;;;2.17;;
59474;SDS011;45288;51.136;16.928;2023-02-02T11:26:18;4.93;;;1.70;;
59474;SDS011;45288;51.136;16.928;2023-02-02T11:28:44;5.47;;;2.28;;
59474;SDS011;45288;51.136;16.928;2023-02-02T11:31:12;4.13;;;2.00;;
59474;SDS011;45288;51.136;16.928;2023-02-02T11:33:37;4.17;;;2.37;;
59474;SDS011;45288;51.136;16.928;2023-02-02T11:36:04;5.73;;;1.90;;
59474;SDS011;45288;51.136;16.928;2023-02-02T11:38:30;4.90;;;1.90;;
59474;SDS011;45288;51.136;16.928;2023-02-02T11:40:59;4.20;;;1.73;;
59474;SDS011;45288;51.136;16.928;2023-02-02T11:43:33;4.95;;;1.85;;
59474;SDS011;45288;51.136;16.928;2023-02-02T11:46:05;5.28;;;1.90;;
59474;SDS011;45288;51.136;16.928;2023-02-02T11:48:38;5.75;;;1.63;;
59474;SDS011;45288;51.136;16.928;2023-02-02T11:51:04;4.75;;;1.90;;
59474;SDS011;45288;51.136;16.928;2023-02-02T11:53:43;6.30;;;2.60;;
59474;SDS011;45288;51.136;16.928;2023-02-02T11:56:16;3.60;;;1.63;;
59474;SDS011;45288;51.136;16.928;2023-02-02T11:58:44;4.90;;;2.03;;
59474;SDS011;45288;51.136;16.928;2023-02-02T12:01:32;6.72;;;2.20;;
59474;SDS011;45288;51.136;16.928;2023-02-02T12:03:57;4.63;;;2.00;;
59474;SDS011;45288;51.136;16.928;2023-02-02T12:06:25;4.77;;;2.03;;
59474;SDS011;45288;51.136;16.928;2023-02-02T12:08:58;7.10;;;2.50;;
59474;SDS011;45288;51.136;16.928;2023-02-02T12:11:35;4.30;;;2.03;;
59474;SDS011;45288;51.136;16.928;2023-02-02T12:14:50;4.88;;;2.03;;
59474;SDS011;45288;51.136;16.928;2023-02-02T12:17:07;7.22;;;2.25;;
59474;SDS011;45288;51.136;16.928;2023-02-02T12:27:08;8.40;;;2.50;;
59474;SDS011;45288;51.136;16.928;2023-02-02T12:32:40;6.03;;;2.40;;
59474;SDS011;45288;51.136;16.928;2023-02-02T12:40:48;7.03;;;3.03;;
59474;SDS011;45288;51.136;16.928;2023-02-02T12:43:22;9.37;;;3.70;;
59474;SDS011;45288;51.136;16.928;2023-02-02T12:53:37;7.45;;;2.63;;
59474;SDS011;45288;51.136;16.928;2023-02-02T12:58:32;8.40;;;2.47;;
59474;SDS011;45288;51.136;16.928;2023-02-02T13:01:12;8.00;;;2.83;;
59474;SDS011;45288;51.136;16.928;2023-02-02T13:09:02;7.90;;;2.80;;
59474;SDS011;45288;51.136;16.928;2023-02-02T13:11:32;8.80;;;3.38;;
59474;SDS011;45288;51.136;16.928;2023-02-02T13:16:47;7.60;;;3.53;;
59474;SDS011;45288;51.136;16.928;2023-02-02T13:19:20;9.65;;;2.95;;
59474;SDS011;45288;51.136;16.928;2023-02-02T13:21:48;8.15;;;2.80;;
59474;SDS011;45288;51.136;16.928;2023-02-02T13:24:17;10.90;;;3.78;;
59474;SDS011;45288;51.136;16.928;2023-02-02T13:26:45;9.32;;;3.60;;
59474;SDS011;45288;51.136;16.928;2023-02-02T13:31:50;9.67;;;3.27;;
59474;SDS011;45288;51.136;16.928;2023-02-02T13:34:28;9.90;;;3.85;;
59474;SDS011;45288;51.136;16.928;2023-02-02T13:37:13;8.27;;;3.17;;
59474;SDS011;45288;51.136;16.928;2023-02-02T13:39:46;7.35;;;2.50;;
59474;SDS011;45288;51.136;16.928;2023-02-02T13:42:25;5.10;;;2.40;;
59474;SDS011;45288;51.136;16.928;2023-02-02T13:45:00;7.47;;;2.45;;
59474;SDS011;45288;51.136;16.928;2023-02-02T13:47:33;6.10;;;2.67;;
59474;SDS011;45288;51.136;16.928;2023-02-02T13:50:03;7.95;;;2.97;;
59474;SDS011;45288;51.136;16.928;2023-02-02T13:52:37;9.47;;;3.07;;
59474;SDS011;45288;51.136;16.928;2023-02-02T13:57:49;8.30;;;2.28;;
59474;SDS011;45288;51.136;16.928;2023-02-02T14:00:19;8.55;;;3.55;;
59474;SDS011;45288;51.136;16.928;2023-02-02T14:02:47;8.90;;;3.20;;
59474;SDS011;45288;51.136;16.928;2023-02-02T14:06:00;9.32;;;2.92;;
59474;SDS011;45288;51.136;16.928;2023-02-02T14:08:16;7.65;;;2.40;;
59474;SDS011;45288;51.136;16.928;2023-02-02T14:10:43;8.65;;;2.95;;
59474;SDS011;45288;51.136;16.928;2023-02-02T14:16:01;11.60;;;3.55;;
59474;SDS011;45288;51.136;16.928;2023-02-02T14:21:12;18.80;;;8.00;;
59474;SDS011;45288;51.136;16.928;2023-02-02T14:23:58;16.05;;;7.55;;
59474;SDS011;45288;51.136;16.928;2023-02-02T14:26:41;25.50;;;10.82;;
59474;SDS011;45288;51.136;16.928;2023-02-02T14:31:54;9.27;;;3.33;;
59474;SDS011;45288;51.136;16.928;2023-02-02T14:34:25;7.00;;;2.60;;
59474;SDS011;45288;51.136;16.928;2023-02-02T14:37:04;9.10;;;3.25;;
59474;SDS011;45288;51.136;16.928;2023-02-02T14:39:33;10.77;;;3.33;;
59474;SDS011;45288;51.136;16.928;2023-02-02T14:47:48;6.80;;;3.00;;
59474;SDS011;45288;51.136;16.928;2023-02-02T14:50:21;7.80;;;2.83;;
59474;SDS011;45288;51.136;16.928;2023-02-02T14:52:55;8.07;;;3.08;;
59474;SDS011;45288;51.136;16.928;2023-02-02T14:55:21;7.95;;;4.00;;
59474;SDS011;45288;51.136;16.928;2023-02-02T14:58:00;8.02;;;3.45;;
59474;SDS011;45288;51.136;16.928;2023-02-02T15:00:27;9.13;;;3.03;;
59474;SDS011;45288;51.136;16.928;2023-02-02T15:02:54;8.83;;;2.90;;
59474;SDS011;45288;51.136;16.928;2023-02-02T15:08:07;7.20;;;2.92;;
59474;SDS011;45288;51.136;16.928;2023-02-02T15:13:22;7.68;;;3.45;;
59474;SDS011;45288;51.136;16.928;2023-02-02T15:15:50;11.20;;;3.97;;
59474;SDS011;45288;51.136;16.928;2023-02-02T15:18:25;6.53;;;3.20;;
59474;SDS011;45288;51.136;16.928;2023-02-02T15:20:55;6.27;;;2.53;;
59474;SDS011;45288;51.136;16.928;2023-02-02T15:26:06;5.03;;;2.47;;
59474;SDS011;45288;51.136;16.928;2023-02-02T15:31:14;5.32;;;3.05;;
59474;SDS011;45288;51.136;16.928;2023-02-02T15:33:45;6.97;;;2.60;;
59474;SDS011;45288;51.136;16.928;2023-02-02T15:36:19;6.20;;;2.85;;
59474;SDS011;45288;51.136;16.928;2023-02-02T15:38:47;6.97;;;2.30;;
59474;SDS011;45288;51.136;16.928;2023-02-02T15:41:25;5.43;;;2.90;;
59474;SDS011;45288;51.136;16.928;2023-02-02T15:43:52;7.80;;;3.07;;
59474;SDS011;45288;51.136;16.928;2023-02-02T15:46:25;7.35;;;2.60;;
59474;SDS011;45288;51.136;16.928;2023-02-02T15:51:36;4.10;;;2.50;;
59474;SDS011;45288;51.136;16.928;2023-02-02T15:54:02;4.87;;;2.63;;
59474;SDS011;45288;51.136;16.928;2023-02-02T15:56:28;5.72;;;2.97;;
59474;SDS011;45288;51.136;16.928;2023-02-02T15:58:55;3.80;;;2.50;;
59474;SDS011;45288;51.136;16.928;2023-02-02T16:01:22;6.78;;;2.90;;
59474;SDS011;45288;51.136;16.928;2023-02-02T16:06:16;6.78;;;3.10;;
59474;SDS011;45288;51.136;16.928;2023-02-02T16:08:42;4.25;;;2.00;;
59474;SDS011;45288;51.136;16.928;2023-02-02T16:11:21;5.73;;;2.50;;
59474;SDS011;45288;51.136;16.928;2023-02-02T16:18:46;4.47;;;2.10;;
59474;SDS011;45288;51.136;16.928;2023-02-02T16:21:17;6.03;;;2.50;;
59474;SDS011;45288;51.136;16.928;2023-02-02T16:23:45;4.53;;;2.40;;
59474;SDS011;45288;51.136;16.928;2023-02-02T16:26:11;4.75;;;2.78;;
59474;SDS011;45288;51.136;16.928;2023-02-02T16:28:38;4.45;;;2.15;;
59474;SDS011;45288;51.136;16.928;2023-02-02T16:31:04;2.45;;;1.77;;
59474;SDS011;45288;51.136;16.928;2023-02-02T16:33:41;5.03;;;2.60;;
59474;SDS011;45288;51.136;16.928;2023-02-02T16:36:17;5.05;;;2.50;;
59474;SDS011;45288;51.136;16.928;2023-02-02T16:38:43;4.72;;;2.45;;